CheckWX is a tool to help pilots better visualize weather data.  It is not intended as a substitute for an official pre-flight weather briefing.

18:42:45 UTC

FQTT TAF
Chingozi Airport
Tete, Mozambique
TAF FQTT 201600Z 2018/2118 17008KT CAVOK TX34/2113Z TN21/2103Z BECMG 2100/2102 VRB02KT BECMG 2106/2108 17008KT BECMG 2112/2114 09012KT

Sep-20@
18:00 UTC

Sep-20 @ 18:00 UTC

Sep-21@
00:00 UTC

Sep-21 @ 00:00 UTC

TAF FQTT 201600Z 2018/2118 17008KT CAVOK TX34/2113Z TN21/2103Z
Wind
  • 170° at 8 KTS
Cloud Levels
  • No significant clouds

Sep-21@
00:00 UTC

Sep-21 @ 00:00 UTC

Sep-21@
06:00 UTC

Sep-21 @ 06:00 UTC

BECMG 2100/2102 VRB02KT

Becoming

Becoming Conditions expected by Sat, Sep 21, 2019 @ 02:00 UTC

Wind
  • Variable at 2 KTS
Cloud Levels
  • No significant clouds

Sep-21@
06:00 UTC

Sep-21 @ 06:00 UTC

Sep-21@
12:00 UTC

Sep-21 @ 12:00 UTC

BECMG 2106/2108 17008KT

Becoming

Becoming Conditions expected by Sat, Sep 21, 2019 @ 08:00 UTC

Wind
  • 170° at 8 KTS
Cloud Levels
  • No significant clouds

Sep-21@
12:00 UTC

Sep-21 @ 12:00 UTC

Sep-21@
18:00 UTC

Sep-21 @ 18:00 UTC

BECMG 2112/2114 09012KT

Becoming

Becoming Conditions expected by Sat, Sep 21, 2019 @ 14:00 UTC

Wind
  • 090° at 12 KTS
Cloud Levels
  • No significant clouds